Thunder radar more information blitzortung!


Radar de pluja more information rain snow radar


Visita la nostra xarxa de llocs de meteo:

Template documentation
and downloads

And another site



No particular awareness of the weather is required.    There are no Weather-warnings

Pagina Historial Weather Underground text

Diari Resum January 23, 2018 Unitats:  Imperial    Mètric   Tant
« Previous Dia
SegĂźent Dia »
Diari Setmana Mensual Anual Personalitzada
  Maxima: Minima: Media:
Temperatura: TemperatureC °F 6.0 °F 11 °F
Punt de rosada: DewpointC °F 2.8 °F 5 °F
Humitat: Humidity % 55 % 67 %
Wind Speed: WindSpeedKMH mph 0.0 mph 3.9 mph
RĂ fegues de vent: WindSpeedGustKMH mph - -
Vent:- - SSE
Pression baro: PressurehPa in 1023.9 in -
Precipitacions: 0.0 in    
Historical Graphs
 
 
Dades de taula per January 23, 2018
Temps Temperatura Punt de rosada Pression baro Vent Wind Speed RĂ fegues de vent Humitat Rainfall Rate (Hourly)
TemperatureC °F DewpointC °F PressurehPa in Calm     Humidity % HourlyPrecipMM in
00:00 11.9 °F 4.6 °F 1026.0 in Calm   4.8 mph 61 % 0.0 in
00:05 11.7 °F 4.4 °F 1026.0 in NNE 3.2 mph 4.8 mph 61 % 0.0 in
00:10 11.6 °F 4.3 °F 1026.0 in Calm     61 % 0.0 in
00:15 11.5 °F 4.2 °F 1026.0 in NE 1.9 mph 1.9 mph 61 % 0.0 in
00:20 11.3 °F 4.1 °F 1026.0 in WNW 2.6 mph 2.6 mph 61 % 0.0 in
00:25 11.2 °F 4.2 °F 1026.0 in Calm     62 % 0.0 in
00:30 11.1 °F 4.1 °F 1026.0 in WNW 3.7 mph 3.7 mph 62 % 0.0 in
00:35 11.1 °F 4.1 °F 1024.9 in NW 1.9 mph 1.9 mph 62 % 0.0 in
00:40 11.2 °F 4.4 °F 1024.9 in NE 3.7 mph 3.7 mph 63 % 0.0 in
00:45 11.3 °F 4.5 °F 1024.9 in NNE 5.6 mph 5.6 mph 63 % 0.0 in
00:50 11.1 °F 4.3 °F 1024.9 in NE 1.9 mph 1.9 mph 63 % 0.0 in
00:55 11.0 °F 4.2 °F 1024.9 in Calm     63 % 0.0 in
01:00 10.9 °F 4.1 °F 1024.9 in WNW 3.7 mph 3.7 mph 63 % 0.0 in
01:05 10.9 °F 4.3 °F 1024.9 in NNE 3.7 mph 3.7 mph 64 % 0.0 in
01:10 10.8 °F 4.3 °F 1024.9 in WNW 3.2 mph 3.2 mph 64 % 0.0 in
01:15 10.7 °F 4.2 °F 1024.9 in NW 1.9 mph   64 % 0.0 in
01:20 10.7 °F 4.2 °F 1024.9 in WNW 2.3 mph 2.3 mph 64 % 0.0 in
01:25 10.6 °F 4.1 °F 1024.9 in NNE 1.9 mph   64 % 0.0 in
01:30 10.5 °F 4.2 °F 1024.9 in ENE 1.9 mph 1.9 mph 65 % 0.0 in
01:35 10.5 °F 4.2 °F 1024.9 in NNE 1.9 mph   65 % 0.0 in
01:40 10.4 °F 4.1 °F 1024.9 in NNE 1.9 mph   65 % 0.0 in
01:50 10.3 °F 4.0 °F 1024.9 in West 5.6 mph 5.6 mph 65 % 0.0 in
01:56 10.2 °F 3.9 °F 1024.9 in NNE 3.9 mph 3.9 mph 65 % 0.0 in
02:06 10.2 °F 3.9 °F 1026.0 in WSW 3.9 mph 3.9 mph 65 % 0.0 in
02:11 10.2 °F 3.9 °F 1026.0 in WSW 3.7 mph 3.7 mph 65 % 0.0 in
02:21 10.2 °F 3.9 °F 1023.9 in WSW 3.7 mph 3.7 mph 65 % 0.0 in
02:31 10.6 °F 4.5 °F 1023.9 in WNW 3.7 mph 3.7 mph 66 % 0.0 in
02:36 10.9 °F 4.8 °F 1023.9 in WSW 7.4 mph 7.4 mph 66 % 0.0 in
02:41 11.1 °F 5.0 °F 1023.9 in West 5.6 mph 5.6 mph 66 % 0.0 in
02:46 11.2 °F 5.3 °F 1024.9 in ENE 5.6 mph 5.6 mph 67 % 0.0 in
02:51 11.2 °F 5.3 °F 1024.9 in ENE 4.7 mph 4.7 mph 67 % 0.0 in
03:01 9.9 °F 3.8 °F 1024.9 in West 3.7 mph 3.7 mph 66 % 0.0 in
03:06 9.6 °F 3.6 °F 1024.9 in West 3.9 mph 3.9 mph 66 % 0.0 in
03:11 9.5 °F 3.7 °F 1024.9 in WSW 3.7 mph   67 % 0.0 in
03:16 9.6 °F 4.0 °F 1026.0 in NE 1.9 mph   68 % 0.0 in
03:21 9.7 °F 4.1 °F 1026.0 in NNE 3.7 mph 3.7 mph 68 % 0.0 in
03:31 9.4 °F 3.8 °F 1026.0 in ENE 3.7 mph 3.7 mph 68 % 0.0 in
03:37 9.4 °F 4.0 °F 1026.0 in WSW 1.9 mph 1.9 mph 69 % 0.0 in
03:47 9.1 °F 3.7 °F 1026.0 in WSW 2.3 mph   69 % 0.0 in
03:52 9.1 °F 3.5 °F 1026.0 in WSW 3.9 mph 3.9 mph 68 % 0.0 in
03:57 9.0 °F 3.6 °F 1026.0 in Calm     69 % 0.0 in
04:02 9.0 °F 3.8 °F 1026.0 in Calm     70 % 0.0 in
04:07 9.0 °F 3.6 °F 1026.0 in WSW 3.7 mph 3.9 mph 69 % 0.0 in
04:12 8.9 °F 3.5 °F 1026.0 in WSW 3.2 mph 3.2 mph 69 % 0.0 in
04:17 8.8 °F 3.4 °F 1026.0 in WSW 1.9 mph   69 % 0.0 in
04:22 8.6 °F 3.2 °F 1026.0 in West 3.9 mph 3.9 mph 69 % 0.0 in
04:27 8.5 °F 3.1 °F 1026.0 in WNW 2.3 mph 2.3 mph 69 % 0.0 in
04:32 8.6 °F 3.2 °F 1026.0 in WNW 3.7 mph 3.7 mph 69 % 0.0 in
04:37 8.7 °F 3.6 °F 1026.0 in NE 1.9 mph   70 % 0.0 in
04:42 8.6 °F 3.6 °F 1026.0 in NNW 1.9 mph   71 % 0.0 in
04:47 8.8 °F 3.6 °F 1026.0 in NNW 3.7 mph 3.7 mph 70 % 0.0 in
04:57 8.6 °F 3.6 °F 1026.0 in NNE 5.6 mph 5.6 mph 71 % 0.0 in
05:07 8.5 °F 3.7 °F 1024.9 in Calm     72 % 0.0 in
05:12 8.4 °F 3.4 °F 1024.9 in Calm     71 % 0.0 in
05:17 8.3 °F 3.3 °F 1026.0 in WNW 2.6 mph 2.6 mph 71 % 0.0 in
05:22 8.4 °F 3.4 °F 1026.0 in NW 3.7 mph   71 % 0.0 in
05:27 8.3 °F 3.3 °F 1026.0 in WNW 1.9 mph 1.9 mph 71 % 0.0 in
05:32 8.3 °F 3.3 °F 1026.0 in WNW 3.2 mph 3.2 mph 71 % 0.0 in
05:37 8.4 °F 3.7 °F 1026.0 in North 1.9 mph 1.9 mph 72 % 0.0 in
05:47 8.4 °F 3.7 °F 1026.0 in West 2.3 mph 2.3 mph 72 % 0.0 in
05:52 8.3 °F 3.6 °F 1026.0 in NNE 3.7 mph 3.7 mph 72 % 0.0 in
05:57 8.5 °F 3.9 °F 1026.0 in NNE 7.4 mph 7.4 mph 73 % 0.0 in
06:02 8.4 °F 3.7 °F 1024.9 in NNE 3.2 mph   72 % 0.0 in
06:07 8.4 °F 3.7 °F 1024.9 in ENE 7.4 mph 7.4 mph 72 % 0.0 in
06:12 8.3 °F 3.7 °F 1024.9 in ENE 3.7 mph 3.7 mph 73 % 0.0 in
06:17 8.3 °F 3.6 °F 1026.0 in ENE 3.9 mph 3.9 mph 72 % 0.0 in
06:22 8.3 °F 3.7 °F 1026.0 in NNW 5.6 mph 5.6 mph 73 % 0.0 in
06:27 8.3 °F 3.7 °F 1026.0 in WNW 3.7 mph 3.7 mph 73 % 0.0 in
06:32 8.2 °F 3.7 °F 1026.0 in NE 3.7 mph 3.7 mph 73 % 0.0 in
06:37 8.2 °F 3.7 °F 1026.0 in North 3.7 mph 3.7 mph 73 % 0.0 in
06:47 8.1 °F 3.6 °F 1027.0 in North 5.6 mph 5.6 mph 73 % 0.0 in
07:02 8.0 °F 3.4 °F 1027.0 in NW 3.7 mph   73 % 0.0 in
07:07 7.9 °F 3.3 °F 1027.0 in North 3.7 mph 3.7 mph 73 % 0.0 in
07:17 8.1 °F 3.7 °F 1027.0 in NNE 3.7 mph 3.7 mph 74 % 0.0 in
07:22 8.0 °F 3.7 °F 1027.0 in NE 4.2 mph 4.2 mph 74 % 0.0 in
07:27 7.9 °F 3.3 °F 1027.0 in West 3.7 mph 3.7 mph 73 % 0.0 in
07:32 7.8 °F 3.4 °F 1027.0 in West 1.9 mph   74 % 0.0 in
07:37 7.7 °F 3.2 °F 1027.0 in WSW 3.9 mph 3.9 mph 73 % 0.0 in
07:42 7.4 °F 3.1 °F 1027.0 in SSW 1.9 mph   74 % 0.0 in
07:47 7.4 °F 3.1 °F 1027.0 in ENE 3.7 mph   74 % 0.0 in
07:52 7.6 °F 3.3 °F 1027.0 in WNW 3.7 mph   74 % 0.0 in
07:57 7.7 °F 3.6 °F 1027.0 in NNE 3.7 mph 3.7 mph 75 % 0.0 in
08:02 7.7 °F 3.6 °F 1027.0 in WNW 2.3 mph 2.3 mph 75 % 0.0 in
08:07 7.7 °F 3.3 °F 1027.0 in WNW 3.7 mph 3.7 mph 74 % 0.0 in
08:12 7.6 °F 3.3 °F 1027.0 in NNE 5.6 mph 5.6 mph 74 % 0.0 in
08:22 7.5 °F 3.2 °F 1027.0 in Calm     74 % 0.0 in
08:27 7.7 °F 3.6 °F 1027.0 in WNW 1.9 mph   75 % 0.0 in
08:32 7.8 °F 3.7 °F 1028.0 in WNW 1.9 mph   75 % 0.0 in
08:37 8.1 °F 3.9 °F 1028.0 in WNW 1.9 mph   75 % 0.0 in
08:42 8.2 °F 4.1 °F 1028.0 in NNE 3.7 mph 3.7 mph 75 % 0.0 in
08:47 8.5 °F 4.3 °F 1028.0 in NNE 3.9 mph 3.9 mph 75 % 0.0 in
08:52 8.6 °F 4.4 °F 1028.0 in NNE 3.7 mph 3.7 mph 75 % 0.0 in
08:57 8.8 °F 4.4 °F 1028.0 in NNE 3.7 mph 3.7 mph 74 % 0.0 in
09:02 8.9 °F 4.5 °F 1028.0 in ENE 3.7 mph 3.7 mph 74 % 0.0 in
09:07 9.0 °F 4.4 °F 1028.0 in ENE 5.6 mph 5.6 mph 73 % 0.0 in
09:12 9.2 °F 4.6 °F 1028.0 in NNE 2.3 mph 2.3 mph 73 % 0.0 in
09:17 9.3 °F 4.7 °F 1028.0 in NNE 4.7 mph 4.7 mph 73 % 0.0 in
09:22 9.4 °F 4.6 °F 1028.0 in NNW 3.5 mph 3.5 mph 72 % 0.0 in
09:27 9.6 °F 4.8 °F 1028.0 in NNE 2.3 mph 2.3 mph 72 % 0.0 in
09:32 9.8 °F 5.0 °F 1028.0 in NNW 4.2 mph 4.2 mph 72 % 0.0 in
09:37 10.0 °F 5.2 °F 1028.0 in West 3.7 mph 3.7 mph 72 % 0.0 in
09:42 10.2 °F 5.2 °F 1028.0 in North 3.9 mph 3.9 mph 71 % 0.0 in
09:52 10.0 °F 4.8 °F 1027.0 in NNE 7.4 mph 7.4 mph 70 % 0.0 in
09:57 10.1 °F 4.9 °F 1027.0 in North 9.3 mph 9.3 mph 70 % 0.0 in
10:07 10.4 °F 5.4 °F 1028.0 in NNE 5.6 mph 5.6 mph 71 % 0.0 in
10:12 10.6 °F 5.3 °F 1028.0 in NNE 3.7 mph 3.7 mph 70 % 0.0 in
10:17 10.9 °F 5.7 °F 1028.0 in NNE 4.7 mph 4.7 mph 70 % 0.0 in
10:22 10.7 °F 5.2 °F 1028.0 in NNE 9.3 mph 9.3 mph 69 % 0.0 in
10:27 10.6 °F 5.2 °F 1028.0 in NE 9.3 mph 9.3 mph 69 % 0.0 in
10:28 10.6 °F 5.2 °F 1028.0 in North 11.1 mph 11.1 mph 69 % 0.0 in
10:33 10.7 °F 5.2 °F 1028.0 in East 9.3 mph 9.3 mph 69 % 0.0 in
10:38 10.8 °F 5.3 °F 1028.0 in ENE 9.7 mph 9.7 mph 69 % 0.0 in
10:48 11.0 °F 5.3 °F 1029.0 in NE 5.6 mph 5.6 mph 68 % 0.0 in
10:53 11.0 °F 5.3 °F 1029.0 in NNE 9.3 mph 9.3 mph 68 % 0.0 in
10:58 11.1 °F 5.4 °F 1029.0 in NE 9.3 mph 9.3 mph 68 % 0.0 in
11:03 11.1 °F 5.4 °F 1029.0 in NE 5.0 mph 5.0 mph 68 % 0.0 in
11:08 11.1 °F 5.2 °F 1029.0 in NNE 13.0 mph 13.0 mph 67 % 0.0 in
11:13 11.5 °F 5.8 °F 1029.0 in ENE 5.6 mph 5.6 mph 68 % 0.0 in
11:18 11.7 °F 5.8 °F 1029.0 in West 5.6 mph 5.6 mph 67 % 0.0 in
11:23 11.8 °F 5.9 °F 1029.0 in NE 9.3 mph 9.3 mph 67 % 0.0 in
11:28 11.8 °F 5.7 °F 1029.0 in ENE 9.3 mph 9.3 mph 66 % 0.0 in
11:33 11.9 °F 5.7 °F 1029.0 in WNW 9.3 mph 9.3 mph 66 % 0.0 in
11:38 11.9 °F 5.7 °F 1029.0 in North 4.2 mph 4.2 mph 66 % 0.0 in
11:53 12.0 °F 5.6 °F 1029.0 in NW 7.4 mph 7.4 mph 65 % 0.0 in
11:58 12.3 °F 5.9 °F 1029.0 in NNE 7.4 mph 7.4 mph 65 % 0.0 in
12:03 12.2 °F 5.8 °F 1029.0 in NNE 9.3 mph 9.3 mph 65 % 0.0 in
12:08 12.4 °F 6.0 °F 1029.0 in NE 5.6 mph 5.6 mph 65 % 0.0 in
12:13 12.7 °F 6.3 °F 1029.0 in NE 4.2 mph 4.2 mph 65 % 0.0 in
12:18 12.7 °F 6.3 °F 1028.0 in NNW 7.4 mph 7.4 mph 65 % 0.0 in
12:23 12.7 °F 6.1 °F 1028.0 in NE 8.7 mph 8.7 mph 64 % 0.0 in
12:33 13.0 °F 6.3 °F 1028.0 in NNE 7.4 mph 7.4 mph 64 % 0.0 in
12:38 13.0 °F 6.3 °F 1028.0 in NE 7.4 mph 7.4 mph 64 % 0.0 in
12:43 13.2 °F 6.3 °F 1028.0 in NNE 11.1 mph 11.1 mph 63 % 0.0 in
12:48 13.4 °F 6.7 °F 1028.0 in NNE 9.3 mph 9.3 mph 64 % 0.0 in
12:53 13.8 °F 6.9 °F 1028.0 in NE 9.3 mph 9.3 mph 63 % 0.0 in
12:58 13.7 °F 6.6 °F 1028.0 in NNE 9.3 mph 9.7 mph 62 % 0.0 in
13:03 13.8 °F 6.9 °F 1027.0 in ENE 5.6 mph 5.6 mph 63 % 0.0 in
13:08 14.0 °F 6.8 °F 1027.0 in NNE 9.3 mph 9.3 mph 62 % 0.0 in
13:13 14.2 °F 7.0 °F 1027.0 in ENE 9.3 mph 9.3 mph 62 % 0.0 in
13:23 15.1 °F 7.9 °F 1027.0 in NE 7.4 mph 7.4 mph 62 % 0.0 in
13:28 15.8 °F 8.3 °F 1027.0 in WNW 4.7 mph 4.7 mph 61 % 0.0 in
13:33 16.0 °F 8.2 °F 1027.0 in SW 5.6 mph 5.6 mph 60 % 0.0 in
13:38 16.2 °F 8.4 °F 1027.0 in West 9.3 mph 9.3 mph 60 % 0.0 in
13:43 16.3 °F 8.3 °F 1027.0 in WNW 9.3 mph 9.3 mph 59 % 0.0 in
13:53 16.9 °F 8.6 °F 1027.0 in WSW 14.8 mph 14.8 mph 58 % 0.0 in
14:03 16.9 °F 8.3 °F 1027.0 in WNW 5.6 mph 5.6 mph 57 % 0.0 in
14:08 16.9 °F 8.3 °F 1027.0 in SW 4.7 mph 4.7 mph 57 % 0.0 in
14:13 17.1 °F 8.2 °F 1027.0 in SW 5.6 mph 5.6 mph 56 % 0.0 in
14:18 17.1 °F 8.0 °F 1027.0 in ESE 6.1 mph 6.1 mph 55 % 0.0 in
14:28 16.9 °F 8.1 °F 1027.0 in NNE 13.0 mph 13.0 mph 56 % 0.0 in
14:33 16.6 °F 7.5 °F 1027.0 in NNE 5.6 mph 5.6 mph 55 % 0.0 in
14:38 16.6 °F 7.8 °F 1027.0 in ENE 3.7 mph 3.7 mph 56 % 0.0 in
14:43 16.9 °F 8.1 °F 1027.0 in NE 3.7 mph 3.7 mph 56 % 0.0 in
14:48 17.0 °F 7.9 °F 1027.0 in NE 5.6 mph 5.6 mph 55 % 0.0 in
14:53 16.6 °F 7.5 °F 1027.0 in WSW 7.4 mph 7.4 mph 55 % 0.0 in
14:58 16.6 °F 7.5 °F 1027.0 in NE 3.7 mph 3.7 mph 55 % 0.0 in
15:13 16.3 °F 7.5 °F 1027.0 in NNE 8.7 mph 8.7 mph 56 % 0.0 in
15:18 16.1 °F 7.3 °F 1027.0 in East 9.3 mph 9.3 mph 56 % 0.0 in
15:28 15.9 °F 7.1 °F 1027.0 in NE 5.3 mph 5.3 mph 56 % 0.0 in
15:33 15.9 °F 7.1 °F 1027.0 in North 5.6 mph 5.6 mph 56 % 0.0 in
15:38 15.8 °F 7.1 °F 1027.0 in NNE 7.4 mph 7.4 mph 56 % 0.0 in
15:43 15.7 °F 6.9 °F 1027.0 in NE 4.2 mph 4.2 mph 56 % 0.0 in
15:48 15.8 °F 7.1 °F 1028.0 in NNE 5.6 mph 5.6 mph 56 % 0.0 in
15:53 15.9 °F 7.1 °F 1028.0 in North 7.4 mph 7.4 mph 56 % 0.0 in
15:58 15.8 °F 7.1 °F 1028.0 in NNE 6.4 mph 6.4 mph 56 % 0.0 in
16:03 15.7 °F 6.9 °F 1027.0 in NNW 5.6 mph 5.6 mph 56 % 0.0 in
16:13 15.6 °F 7.1 °F 1027.0 in ENE 5.8 mph 5.8 mph 57 % 0.0 in
16:18 15.5 °F 7.0 °F 1028.0 in NNE 11.1 mph 11.1 mph 57 % 0.0 in
16:23 15.5 °F 7.0 °F 1028.0 in NNE 7.4 mph 7.4 mph 57 % 0.0 in
16:28 15.3 °F 6.8 °F 1028.0 in NE 7.4 mph 7.4 mph 57 % 0.0 in
16:33 15.3 °F 6.8 °F 1028.0 in North 5.6 mph 5.6 mph 57 % 0.0 in
16:38 15.2 °F 6.7 °F 1028.0 in NNE 3.7 mph 3.7 mph 57 % 0.0 in
16:43 15.3 °F 7.1 °F 1028.0 in ENE 3.7 mph 3.7 mph 58 % 0.0 in
16:48 15.2 °F 7.0 °F 1028.0 in North 5.6 mph 5.6 mph 58 % 0.0 in
16:53 15.2 °F 7.0 °F 1028.0 in NNW 2.6 mph   58 % 0.0 in
16:58 15.1 °F 6.9 °F 1028.0 in ENE 3.7 mph 3.7 mph 58 % 0.0 in
17:03 15.0 °F 6.8 °F 1027.0 in NE 5.6 mph 5.6 mph 58 % 0.0 in
17:08 14.9 °F 6.7 °F 1027.0 in NNE 3.9 mph 3.9 mph 58 % 0.0 in
17:13 14.8 °F 6.6 °F 1027.0 in ENE 5.6 mph 5.6 mph 58 % 0.0 in
17:18 14.6 °F 6.7 °F 1028.0 in NNE 5.6 mph 5.6 mph 59 % 0.0 in
17:23 14.5 °F 6.6 °F 1028.0 in NNW 5.0 mph 5.0 mph 59 % 0.0 in
17:28 14.3 °F 6.4 °F 1028.0 in NNE 3.7 mph 3.7 mph 59 % 0.0 in
17:33 14.1 °F 6.4 °F 1028.0 in NNE 3.7 mph 3.7 mph 60 % 0.0 in
17:38 14.0 °F 6.3 °F 1028.0 in ENE 5.6 mph 5.6 mph 60 % 0.0 in
17:43 13.8 °F 6.2 °F 1028.0 in NNE 4.7 mph 4.7 mph 60 % 0.0 in
17:48 13.7 °F 6.3 °F 1028.0 in NNE 3.7 mph 3.7 mph 61 % 0.0 in
17:53 13.5 °F 6.1 °F 1028.0 in Calm     61 % 0.0 in
17:58 13.5 °F 6.1 °F 1028.0 in WNW 3.7 mph 3.7 mph 61 % 0.0 in
18:03 13.4 °F 6.0 °F 1029.0 in West 3.7 mph 3.7 mph 61 % 0.0 in
18:08 13.2 °F 6.1 °F 1029.0 in WNW 1.9 mph   62 % 0.0 in
18:13 13.1 °F 6.0 °F 1029.0 in Calm     62 % 0.0 in
18:18 13.0 °F 5.9 °F 1029.0 in NW 5.6 mph 5.6 mph 62 % 0.0 in
18:23 12.9 °F 5.8 °F 1029.0 in ENE 2.3 mph   62 % 0.0 in
18:28 12.8 °F 5.9 °F 1029.0 in Calm     63 % 0.0 in
18:33 12.8 °F 5.7 °F 1030.0 in WNW 2.6 mph 2.6 mph 62 % 0.0 in
18:38 12.6 °F 5.7 °F 1030.0 in WNW 3.7 mph 3.7 mph 63 % 0.0 in
18:43 12.6 °F 5.7 °F 1030.0 in West 3.7 mph 3.7 mph 63 % 0.0 in
18:48 12.5 °F 5.7 °F 1030.0 in West 2.3 mph 2.3 mph 63 % 0.0 in
18:53 12.4 °F 5.8 °F 1030.0 in Calm     64 % 0.0 in
18:58 12.3 °F 5.7 °F 1030.0 in West 1.9 mph   64 % 0.0 in
19:08 12.3 °F 5.7 °F 1030.0 in Calm     64 % 0.0 in
19:13 12.3 °F 5.7 °F 1030.0 in West 3.7 mph 3.7 mph 64 % 0.0 in
19:18 12.1 °F 5.5 °F 1030.0 in Calm     64 % 0.0 in
19:28 12.1 °F 5.7 °F 1030.0 in Calm     65 % 0.0 in
19:33 12.1 °F 5.7 °F 1030.0 in Calm     65 % 0.0 in
19:38 12.1 °F 5.7 °F 1030.0 in Calm     65 % 0.0 in
19:43 12.1 °F 5.7 °F 1030.0 in SW 3.9 mph   65 % 0.0 in
19:48 11.3 °F 4.9 °F 1030.0 in SW 3.7 mph 3.7 mph 65 % 0.0 in
19:53 11.1 °F 4.8 °F 1030.0 in Calm     65 % 0.0 in
19:58 11.2 °F 5.1 °F 1030.0 in SW 1.9 mph 1.9 mph 66 % 0.0 in
20:03 11.2 °F 5.1 °F 1030.0 in Calm     66 % 0.0 in
20:08 11.2 °F 5.3 °F 1030.0 in Calm     67 % 0.0 in
20:13 11.3 °F 5.2 °F 1030.0 in WSW 1.9 mph 1.9 mph 66 % 0.0 in
20:18 11.3 °F 5.2 °F 1030.0 in West 3.7 mph 3.7 mph 66 % 0.0 in
20:23 11.4 °F 5.3 °F 1030.0 in West 3.7 mph 3.7 mph 66 % 0.0 in
20:28 11.4 °F 5.5 °F 1030.0 in West 3.7 mph 3.7 mph 67 % 0.0 in
20:38 11.3 °F 5.4 °F 1030.0 in WSW 1.9 mph 1.9 mph 67 % 0.0 in
20:43 11.3 °F 5.4 °F 1030.0 in Calm     67 % 0.0 in
20:48 11.3 °F 5.4 °F 1030.0 in West 3.7 mph 3.7 mph 67 % 0.0 in
20:53 11.3 °F 5.4 °F 1030.0 in WSW 3.9 mph 3.9 mph 67 % 0.0 in
20:58 11.2 °F 5.3 °F 1030.0 in West 3.7 mph 4.2 mph 67 % 0.0 in
21:03 11.2 °F 5.3 °F 1030.0 in SW 3.7 mph 3.7 mph 67 % 0.0 in
21:05 7.0 °F 3.6 °F 1030.0 in Calm   1.6 mph 79 % 0.0 in
21:08 11.1 °F 5.2 °F 1030.0 in WSW 3.9 mph 3.9 mph 67 % 0.0 in
21:13 11.2 °F 5.3 °F 1030.0 in West 4.2 mph 4.2 mph 67 % 0.0 in
21:23 11.0 °F 5.3 °F 1030.0 in West 3.7 mph 3.7 mph 68 % 0.0 in
21:28 10.8 °F 5.1 °F 1030.0 in WSW 4.2 mph 4.2 mph 68 % 0.0 in
21:33 10.7 °F 5.1 °F 1030.0 in West 3.7 mph 3.7 mph 68 % 0.0 in
21:35 6.8 °F 3.4 °F 1030.0 in West 1.6 mph 1.6 mph 79 % 0.0 in
21:38 10.6 °F 4.9 °F 1030.0 in WSW 4.2 mph 4.2 mph 68 % 0.0 in
21:43 10.6 °F 4.9 °F 1030.0 in West 3.7 mph 3.7 mph 68 % 0.0 in
21:45 6.8 °F 3.4 °F 1030.0 in Calm   1.6 mph 79 % 0.0 in
21:48 10.6 °F 5.2 °F 1030.0 in SW 3.7 mph 3.7 mph 69 % 0.0 in
21:53 10.5 °F 5.1 °F 1030.0 in SW 1.9 mph   69 % 0.0 in
21:55 6.8 °F 3.6 °F 1030.0 in Calm     80 % 0.0 in
21:58 10.4 °F 5.2 °F 1030.0 in SW 1.9 mph 1.9 mph 70 % 0.0 in
22:03 10.4 °F 5.2 °F 1030.7 in WSW 1.9 mph 1.9 mph 70 % 0.0 in
22:05 6.6 °F 3.2 °F 1030.0 in Calm     79 % 0.0 in
22:08 10.3 °F 5.1 °F 1030.7 in WSW 2.3 mph 2.3 mph 70 % 0.0 in
22:13 10.3 °F 5.1 °F 1030.7 in NE 3.9 mph   70 % 0.0 in
22:15 6.5 °F 3.1 °F 1030.0 in NW 1.6 mph 1.6 mph 79 % 0.0 in
22:23 9.5 °F 4.3 °F 1030.7 in NNE 3.9 mph 3.9 mph 70 % 0.0 in
22:25 6.4 °F 3.0 °F 1029.0 in Calm   3.2 mph 79 % 0.0 in
22:33 9.6 °F 4.4 °F 1030.7 in WNW 3.7 mph 3.7 mph 70 % 0.0 in
22:35 6.4 °F 3.0 °F 1029.0 in Calm     79 % 0.0 in
22:38 9.6 °F 4.6 °F 1030.7 in Calm     71 % 0.0 in
22:43 9.4 °F 4.4 °F 1030.7 in Calm     71 % 0.0 in
22:48 9.3 °F 4.3 °F 1030.7 in Calm     71 % 0.0 in
22:53 9.2 °F 4.4 °F 1030.7 in West 1.9 mph   72 % 0.0 in
22:55 6.5 °F 3.3 °F 1029.0 in NW 1.6 mph 1.6 mph 80 % 0.0 in
22:58 9.1 °F 4.3 °F 1030.7 in Calm     72 % 0.0 in
23:08 8.8 °F 4.0 °F 1030.0 in West 2.6 mph 2.6 mph 72 % 0.0 in
23:15 6.5 °F 3.3 °F 1029.0 in Calm     80 % 0.0 in
23:18 8.8 °F 4.2 °F 1030.7 in Calm     73 % 0.0 in
23:23 8.7 °F 4.3 °F 1030.7 in Calm     74 % 0.0 in
23:25 6.2 °F 3.0 °F 1029.0 in Calm   1.6 mph 80 % 0.0 in
23:28 8.7 °F 4.3 °F 1030.7 in Calm     74 % 0.0 in
23:33 8.6 °F 4.2 °F 1030.7 in Calm     74 % 0.0 in
23:35 6.1 °F 2.9 °F 1029.0 in Calm   1.6 mph 80 % 0.0 in
23:38 8.6 °F 4.2 °F 1030.7 in Calm     74 % 0.0 in
23:43 8.5 °F 4.1 °F 1030.7 in West 1.9 mph 2.3 mph 74 % 0.0 in
23:45 6.0 °F 2.8 °F 1029.0 in West 1.6 mph 3.2 mph 80 % 0.0 in
23:48 8.4 °F 4.1 °F 1030.7 in West 2.3 mph 2.3 mph 74 % 0.0 in
23:53 8.3 °F 3.9 °F 1030.7 in West 3.7 mph 3.7 mph 74 % 0.0 in
23:55 6.1 °F 2.9 °F 1029.0 in West 1.6 mph 3.2 mph 80 % 0.0 in
Meteo Sesrovires
Elogis d' Weather Underground - 1.75 mb

Guio original per  Jim McMurry - jmcmurry@mwt.net Adaptat per a la plantilla per  Wim van der Kuil - Leuven-Template.eu

Trobareu la nostra informacio del temps tambe a:

Weather Underground

AWEKAS